sensor_id;sensor_type;location;lat;lon;timestamp;pressure;altitude;pressure_sealevel;temperature;humidity
26489;BME280;14169;43.684;10.484;2022-11-09T00:02:10;102078.53;;;14.84;100.00
26489;BME280;14169;43.684;10.484;2022-11-09T00:04:35;102072.53;;;14.81;100.00
26489;BME280;14169;43.684;10.484;2022-11-09T00:07:01;102085.66;;;14.79;100.00
26489;BME280;14169;43.684;10.484;2022-11-09T00:09:26;102081.72;;;14.65;100.00
26489;BME280;14169;43.684;10.484;2022-11-09T00:11:52;102084.50;;;14.59;100.00
26489;BME280;14169;43.684;10.484;2022-11-09T00:14:18;102088.84;;;14.60;100.00
26489;BME280;14169;43.684;10.484;2022-11-09T00:16:44;102084.69;;;14.53;100.00
26489;BME280;14169;43.684;10.484;2022-11-09T00:19:10;102079.50;;;14.50;100.00
26489;BME280;14169;43.684;10.484;2022-11-09T00:21:37;102083.97;;;14.46;100.00
26489;BME280;14169;43.684;10.484;2022-11-09T00:24:03;102083.16;;;14.44;100.00
26489;BME280;14169;43.684;10.484;2022-11-09T00:26:28;102082.38;;;14.41;100.00
26489;BME280;14169;43.684;10.484;2022-11-09T00:28:54;102082.47;;;14.36;100.00
26489;BME280;14169;43.684;10.484;2022-11-09T00:31:21;102077.31;;;14.31;100.00
26489;BME280;14169;43.684;10.484;2022-11-09T00:33:48;102083.53;;;14.27;100.00
26489;BME280;14169;43.684;10.484;2022-11-09T00:36:14;102077.41;;;14.28;100.00
26489;BME280;14169;43.684;10.484;2022-11-09T00:38:40;102084.28;;;14.34;100.00
26489;BME280;14169;43.684;10.484;2022-11-09T00:41:08;102079.88;;;14.36;100.00
26489;BME280;14169;43.684;10.484;2022-11-09T00:43:34;102079.81;;;14.38;100.00
26489;BME280;14169;43.684;10.484;2022-11-09T00:46:00;102081.56;;;14.37;100.00
26489;BME280;14169;43.684;10.484;2022-11-09T00:48:25;102085.00;;;14.41;100.00
26489;BME280;14169;43.684;10.484;2022-11-09T00:50:55;102088.50;;;14.40;100.00
26489;BME280;14169;43.684;10.484;2022-11-09T00:53:21;102089.31;;;14.42;100.00
26489;BME280;14169;43.684;10.484;2022-11-09T00:55:57;102084.91;;;14.44;100.00
26489;BME280;14169;43.684;10.484;2022-11-09T00:58:24;102081.34;;;14.46;100.00
26489;BME280;14169;43.684;10.484;2022-11-09T01:00:51;102084.69;;;14.51;100.00
26489;BME280;14169;43.684;10.484;2022-11-09T01:03:17;102081.19;;;14.52;100.00
26489;BME280;14169;43.684;10.484;2022-11-09T01:05:43;102087.25;;;14.54;100.00
26489;BME280;14169;43.684;10.484;2022-11-09T01:08:09;102072.22;;;14.59;100.00
26489;BME280;14169;43.684;10.484;2022-11-09T01:10:34;102075.50;;;14.67;100.00
26489;BME280;14169;43.684;10.484;2022-11-09T01:12:59;102084.03;;;14.75;100.00
26489;BME280;14169;43.684;10.484;2022-11-09T01:15:25;102076.00;;;14.81;100.00
26489;BME280;14169;43.684;10.484;2022-11-09T01:17:50;102077.56;;;14.88;100.00
26489;BME280;14169;43.684;10.484;2022-11-09T01:20:16;102078.25;;;14.95;100.00
26489;BME280;14169;43.684;10.484;2022-11-09T01:22:42;102069.38;;;14.99;100.00
26489;BME280;14169;43.684;10.484;2022-11-09T01:25:08;102072.72;;;15.04;100.00
26489;BME280;14169;43.684;10.484;2022-11-09T01:27:33;102069.22;;;15.03;100.00
26489;BME280;14169;43.684;10.484;2022-11-09T01:29:59;102062.13;;;15.07;100.00
26489;BME280;14169;43.684;10.484;2022-11-09T01:32:24;102064.66;;;15.10;100.00
26489;BME280;14169;43.684;10.484;2022-11-09T01:34:50;102069.00;;;15.11;100.00
26489;BME280;14169;43.684;10.484;2022-11-09T01:37:15;102061.13;;;15.11;100.00
26489;BME280;14169;43.684;10.484;2022-11-09T01:39:41;102062.81;;;15.13;100.00
26489;BME280;14169;43.684;10.484;2022-11-09T01:42:06;102067.00;;;15.19;100.00
26489;BME280;14169;43.684;10.484;2022-11-09T01:44:34;102060.75;;;15.23;100.00
26489;BME280;14169;43.684;10.484;2022-11-09T01:47:12;102063.38;;;15.25;100.00
26489;BME280;14169;43.684;10.484;2022-11-09T01:52:17;102051.00;;;15.28;100.00
26489;BME280;14169;43.684;10.484;2022-11-09T01:54:59;102048.31;;;15.30;100.00
26489;BME280;14169;43.684;10.484;2022-11-09T01:57:33;102043.13;;;15.28;100.00
26489;BME280;14169;43.684;10.484;2022-11-09T02:00:09;102052.81;;;15.26;100.00
26489;BME280;14169;43.684;10.484;2022-11-09T02:02:38;102043.19;;;15.25;100.00
26489;BME280;14169;43.684;10.484;2022-11-09T02:05:09;102042.44;;;15.22;100.00
26489;BME280;14169;43.684;10.484;2022-11-09T02:07:37;102040.72;;;15.21;100.00
26489;BME280;14169;43.684;10.484;2022-11-09T02:10:07;102039.94;;;15.17;100.00
26489;BME280;14169;43.684;10.484;2022-11-09T02:12:33;102032.22;;;15.12;100.00
26489;BME280;14169;43.684;10.484;2022-11-09T02:15:02;102030.63;;;15.07;100.00
26489;BME280;14169;43.684;10.484;2022-11-09T02:17:29;102030.84;;;14.99;100.00
26489;BME280;14169;43.684;10.484;2022-11-09T02:19:57;102032.78;;;14.94;100.00
26489;BME280;14169;43.684;10.484;2022-11-09T02:22:23;102028.47;;;14.92;100.00
26489;BME280;14169;43.684;10.484;2022-11-09T02:24:49;102025.88;;;14.90;100.00
26489;BME280;14169;43.684;10.484;2022-11-09T02:27:15;102025.88;;;14.90;100.00
26489;BME280;14169;43.684;10.484;2022-11-09T02:29:43;102021.53;;;14.89;100.00
26489;BME280;14169;43.684;10.484;2022-11-09T02:32:13;102022.44;;;14.88;100.00
26489;BME280;14169;43.684;10.484;2022-11-09T02:34:40;102019.88;;;14.87;100.00
26489;BME280;14169;43.684;10.484;2022-11-09T02:37:06;102022.53;;;14.85;100.00
26489;BME280;14169;43.684;10.484;2022-11-09T02:39:31;102027.06;;;14.80;100.00
26489;BME280;14169;43.684;10.484;2022-11-09T02:42:12;102025.44;;;14.76;100.00
26489;BME280;14169;43.684;10.484;2022-11-09T02:44:48;102026.41;;;14.72;100.00
26489;BME280;14169;43.684;10.484;2022-11-09T02:47:15;102025.59;;;14.70;100.00
26489;BME280;14169;43.684;10.484;2022-11-09T02:49:40;102026.50;;;14.69;100.00
26489;BME280;14169;43.684;10.484;2022-11-09T02:52:06;102026.59;;;14.66;100.00
26489;BME280;14169;43.684;10.484;2022-11-09T02:54:32;102028.41;;;14.64;100.00
26489;BME280;14169;43.684;10.484;2022-11-09T02:56:57;102034.56;;;14.62;100.00
26489;BME280;14169;43.684;10.484;2022-11-09T02:59:22;102034.63;;;14.60;100.00
26489;BME280;14169;43.684;10.484;2022-11-09T03:01:48;102030.28;;;14.59;100.00
26489;BME280;14169;43.684;10.484;2022-11-09T03:04:13;102032.06;;;14.57;100.00
26489;BME280;14169;43.684;10.484;2022-11-09T03:06:39;102028.63;;;14.55;100.00
26489;BME280;14169;43.684;10.484;2022-11-09T03:09:07;102024.44;;;14.50;100.00
26489;BME280;14169;43.684;10.484;2022-11-09T03:11:34;102026.34;;;14.43;100.00
26489;BME280;14169;43.684;10.484;2022-11-09T03:13:59;102030.09;;;14.35;100.00
26489;BME280;14169;43.684;10.484;2022-11-09T03:16:24;102025.78;;;14.32;100.00
26489;BME280;14169;43.684;10.484;2022-11-09T03:18:50;102027.56;;;14.30;100.00
26489;BME280;14169;43.684;10.484;2022-11-09T03:21:17;102014.50;;;14.28;100.00
26489;BME280;14169;43.684;10.484;2022-11-09T03:23:42;102018.00;;;14.27;100.00
26489;BME280;14169;43.684;10.484;2022-11-09T03:26:08;102018.97;;;14.25;100.00
26489;BME280;14169;43.684;10.484;2022-11-09T03:28:33;102013.72;;;14.25;100.00
26489;BME280;14169;43.684;10.484;2022-11-09T03:30:59;102010.19;;;14.26;100.00
26489;BME280;14169;43.684;10.484;2022-11-09T03:33:24;102013.69;;;14.26;100.00
26489;BME280;14169;43.684;10.484;2022-11-09T03:35:49;102010.19;;;14.26;100.00
26489;BME280;14169;43.684;10.484;2022-11-09T03:38:15;102018.97;;;14.25;100.00
26489;BME280;14169;43.684;10.484;2022-11-09T03:40:41;102014.63;;;14.24;100.00
26489;BME280;14169;43.684;10.484;2022-11-09T03:43:06;102019.84;;;14.24;100.00
26489;BME280;14169;43.684;10.484;2022-11-09T03:45:32;102026.84;;;14.25;100.00
26489;BME280;14169;43.684;10.484;2022-11-09T03:47:57;102026.78;;;14.26;100.00
26489;BME280;14169;43.684;10.484;2022-11-09T03:50:25;102027.66;;;14.27;100.00
26489;BME280;14169;43.684;10.484;2022-11-09T03:52:51;102024.13;;;14.28;100.00
26489;BME280;14169;43.684;10.484;2022-11-09T03:55:16;102021.44;;;14.29;100.00
26489;BME280;14169;43.684;10.484;2022-11-09T03:57:43;102020.63;;;14.29;100.00
26489;BME280;14169;43.684;10.484;2022-11-09T04:00:11;102027.50;;;14.31;100.00
26489;BME280;14169;43.684;10.484;2022-11-09T04:02:37;102021.41;;;14.32;100.00
26489;BME280;14169;43.684;10.484;2022-11-09T04:05:02;102028.38;;;14.33;100.00
26489;BME280;14169;43.684;10.484;2022-11-09T04:07:28;102024.00;;;14.34;100.00
26489;BME280;14169;43.684;10.484;2022-11-09T04:09:53;102038.00;;;14.33;100.00
26489;BME280;14169;43.684;10.484;2022-11-09T04:12:18;102026.66;;;14.32;100.00
26489;BME280;14169;43.684;10.484;2022-11-09T04:14:44;102024.06;;;14.31;100.00
26489;BME280;14169;43.684;10.484;2022-11-09T04:17:09;102034.59;;;14.28;100.00
26489;BME280;14169;43.684;10.484;2022-11-09T04:19:34;102030.28;;;14.25;100.00
26489;BME280;14169;43.684;10.484;2022-11-09T04:22:00;102028.59;;;14.24;100.00
26489;BME280;14169;43.684;10.484;2022-11-09T04:24:25;102036.34;;;14.27;100.00
26489;BME280;14169;43.684;10.484;2022-11-09T04:26:50;102028.50;;;14.27;100.00
26489;BME280;14169;43.684;10.484;2022-11-09T04:29:16;102027.53;;;14.33;100.00
26489;BME280;14169;43.684;10.484;2022-11-09T04:31:41;102024.69;;;14.41;100.00
26489;BME280;14169;43.684;10.484;2022-11-09T04:34:07;102029.78;;;14.45;100.00
26489;BME280;14169;43.684;10.484;2022-11-09T04:36:32;102028.91;;;14.46;100.00
26489;BME280;14169;43.684;10.484;2022-11-09T04:38:58;102030.59;;;14.49;100.00
26489;BME280;14169;43.684;10.484;2022-11-09T04:41:23;102020.91;;;14.51;100.00
26489;BME280;14169;43.684;10.484;2022-11-09T04:43:48;102020.81;;;14.54;100.00
26489;BME280;14169;43.684;10.484;2022-11-09T04:46:14;102017.31;;;14.53;100.00
26489;BME280;14169;43.684;10.484;2022-11-09T04:48:39;102020.88;;;14.52;100.00
26489;BME280;14169;43.684;10.484;2022-11-09T04:51:07;102022.66;;;14.50;100.00
26489;BME280;14169;43.684;10.484;2022-11-09T04:53:35;102016.69;;;14.45;100.00
26489;BME280;14169;43.684;10.484;2022-11-09T04:56:01;102023.72;;;14.45;100.00
26489;BME280;14169;43.684;10.484;2022-11-09T04:58:27;102016.81;;;14.41;100.00
26489;BME280;14169;43.684;10.484;2022-11-09T05:00:52;102018.56;;;14.40;100.00
26489;BME280;14169;43.684;10.484;2022-11-09T05:03:18;102023.88;;;14.37;100.00
26489;BME280;14169;43.684;10.484;2022-11-09T05:05:44;102018.66;;;14.37;100.00
26489;BME280;14169;43.684;10.484;2022-11-09T05:08:10;102030.06;;;14.36;100.00
26489;BME280;14169;43.684;10.484;2022-11-09T05:10:36;102017.84;;;14.35;100.00
26489;BME280;14169;43.684;10.484;2022-11-09T05:13:11;102022.28;;;14.33;100.00
26489;BME280;14169;43.684;10.484;2022-11-09T05:15:37;102016.16;;;14.32;100.00
26489;BME280;14169;43.684;10.484;2022-11-09T05:18:04;102022.25;;;14.31;100.00
26489;BME280;14169;43.684;10.484;2022-11-09T05:20:29;102017.06;;;14.30;100.00
26489;BME280;14169;43.684;10.484;2022-11-09T05:22:57;102016.19;;;14.31;100.00
26489;BME280;14169;43.684;10.484;2022-11-09T05:25:41;102021.44;;;14.29;100.00
26489;BME280;14169;43.684;10.484;2022-11-09T05:28:06;102018.81;;;14.31;100.00
26489;BME280;14169;43.684;10.484;2022-11-09T05:30:32;102018.75;;;14.34;100.00
26489;BME280;14169;43.684;10.484;2022-11-09T05:32:57;102016.94;;;14.36;100.00
26489;BME280;14169;43.684;10.484;2022-11-09T05:35:23;102013.38;;;14.39;100.00
26489;BME280;14169;43.684;10.484;2022-11-09T05:37:48;102016.81;;;14.41;100.00
26489;BME280;14169;43.684;10.484;2022-11-09T05:40:15;102022.06;;;14.41;100.00
26489;BME280;14169;43.684;10.484;2022-11-09T05:42:42;102013.38;;;14.39;100.00
26489;BME280;14169;43.684;10.484;2022-11-09T05:45:09;102015.09;;;14.40;100.00
26489;BME280;14169;43.684;10.484;2022-11-09T05:47:38;102022.09;;;14.39;100.00
26489;BME280;14169;43.684;10.484;2022-11-09T05:50:06;102012.53;;;14.38;100.00
26489;BME280;14169;43.684;10.484;2022-11-09T05:52:32;102026.41;;;14.42;100.00
26489;BME280;14169;43.684;10.484;2022-11-09T05:54:58;102025.47;;;14.44;100.00
26489;BME280;14169;43.684;10.484;2022-11-09T05:57:25;102022.78;;;14.46;100.00
26489;BME280;14169;43.684;10.484;2022-11-09T05:59:50;102018.38;;;14.48;100.00
26489;BME280;14169;43.684;10.484;2022-11-09T06:02:15;102020.00;;;14.52;100.00
26489;BME280;14169;43.684;10.484;2022-11-09T06:04:41;102020.81;;;14.54;100.00
26489;BME280;14169;43.684;10.484;2022-11-09T06:07:06;102021.69;;;14.54;100.00
26489;BME280;14169;43.684;10.484;2022-11-09T06:09:32;102019.88;;;14.56;100.00
26489;BME280;14169;43.684;10.484;2022-11-09T06:11:57;102013.66;;;14.60;100.00
26489;BME280;14169;43.684;10.484;2022-11-09T06:14:22;102017.09;;;14.62;100.00
26489;BME280;14169;43.684;10.484;2022-11-09T06:16:48;102025.84;;;14.61;100.00
26489;BME280;14169;43.684;10.484;2022-11-09T06:19:13;102029.22;;;14.66;100.00
26489;BME280;14169;43.684;10.484;2022-11-09T06:21:39;102027.41;;;14.68;100.00
26489;BME280;14169;43.684;10.484;2022-11-09T06:24:04;102031.63;;;14.74;100.00
26489;BME280;14169;43.684;10.484;2022-11-09T06:26:30;102027.94;;;14.79;100.00
26489;BME280;14169;43.684;10.484;2022-11-09T06:28:55;102030.38;;;14.87;100.00
26489;BME280;14169;43.684;10.484;2022-11-09T06:31:21;102038.88;;;14.95;100.00
26489;BME280;14169;43.684;10.484;2022-11-09T06:33:46;102040.34;;;15.03;100.00
26489;BME280;14169;43.684;10.484;2022-11-09T06:36:12;102046.00;;;15.19;100.00
26489;BME280;14169;43.684;10.484;2022-11-09T06:38:38;102043.88;;;15.32;100.00
26489;BME280;14169;43.684;10.484;2022-11-09T06:41:03;102045.28;;;15.43;100.00
26489;BME280;14169;43.684;10.484;2022-11-09T06:43:29;102050.22;;;15.54;100.00
26489;BME280;14169;43.684;10.484;2022-11-09T06:45:54;102052.31;;;15.70;100.00
26489;BME280;14169;43.684;10.484;2022-11-09T06:48:20;102056.19;;;15.85;100.00
26489;BME280;14169;43.684;10.484;2022-11-09T06:50:46;102062.75;;;15.99;100.00
26489;BME280;14169;43.684;10.484;2022-11-09T06:53:13;102054.50;;;16.10;100.00
26489;BME280;14169;43.684;10.484;2022-11-09T06:55:39;102065.41;;;16.24;100.00
26489;BME280;14169;43.684;10.484;2022-11-09T06:58:06;102054.47;;;16.36;100.00
26489;BME280;14169;43.684;10.484;2022-11-09T07:00:32;102064.69;;;16.45;100.00
26489;BME280;14169;43.684;10.484;2022-11-09T07:02:57;102068.78;;;16.54;100.00
26489;BME280;14169;43.684;10.484;2022-11-09T07:05:23;102081.44;;;16.67;100.00
26489;BME280;14169;43.684;10.484;2022-11-09T07:07:48;102077.50;;;16.79;100.00
26489;BME280;14169;43.684;10.484;2022-11-09T07:10:14;102088.53;;;16.90;100.00
26489;BME280;14169;43.684;10.484;2022-11-09T07:12:40;102079.31;;;17.02;100.00
26489;BME280;14169;43.684;10.484;2022-11-09T07:15:06;102088.41;;;17.16;100.00
26489;BME280;14169;43.684;10.484;2022-11-09T07:17:33;102087.16;;;17.26;100.00
26489;BME280;14169;43.684;10.484;2022-11-09T07:19:58;102101.53;;;17.41;100.00
26489;BME280;14169;43.684;10.484;2022-11-09T07:22:26;102097.03;;;17.44;100.00
26489;BME280;14169;43.684;10.484;2022-11-09T07:24:52;102102.66;;;17.57;100.00
26489;BME280;14169;43.684;10.484;2022-11-09T07:27:18;102105.34;;;17.55;100.00
26489;BME280;14169;43.684;10.484;2022-11-09T07:29:43;102107.44;;;17.69;100.00
26489;BME280;14169;43.684;10.484;2022-11-09T07:32:09;102113.81;;;17.85;100.00
26489;BME280;14169;43.684;10.484;2022-11-09T07:34:34;102113.34;;;17.97;100.00
26489;BME280;14169;43.684;10.484;2022-11-09T07:36:59;102123.72;;;18.02;100.00
26489;BME280;14169;43.684;10.484;2022-11-09T07:39:25;102117.88;;;18.15;100.00
26489;BME280;14169;43.684;10.484;2022-11-09T07:41:50;102122.66;;;18.27;100.00
26489;BME280;14169;43.684;10.484;2022-11-09T07:44:18;102127.44;;;18.39;100.00
26489;BME280;14169;43.684;10.484;2022-11-09T07:46:47;102128.63;;;18.52;100.00
26489;BME280;14169;43.684;10.484;2022-11-09T07:49:15;102129.28;;;18.58;100.00
26489;BME280;14169;43.684;10.484;2022-11-09T07:51:41;102132.66;;;18.61;100.00
26489;BME280;14169;43.684;10.484;2022-11-09T07:54:06;102140.38;;;18.66;100.00
26489;BME280;14169;43.684;10.484;2022-11-09T07:56:32;102143.63;;;18.72;100.00
26489;BME280;14169;43.684;10.484;2022-11-09T07:58:57;102133.06;;;18.72;100.00
26489;BME280;14169;43.684;10.484;2022-11-09T08:01:23;102127.16;;;18.86;100.00
26489;BME280;14169;43.684;10.484;2022-11-09T08:03:48;102141.34;;;19.03;100.00
26489;BME280;14169;43.684;10.484;2022-11-09T08:06:14;102136.59;;;19.11;100.00
26489;BME280;14169;43.684;10.484;2022-11-09T08:08:39;102145.63;;;19.06;100.00
26489;BME280;14169;43.684;10.484;2022-11-09T08:11:05;102141.59;;;18.97;100.00
26489;BME280;14169;43.684;10.484;2022-11-09T08:13:30;102140.91;;;18.94;100.00
26489;BME280;14169;43.684;10.484;2022-11-09T08:15:56;102137.25;;;18.96;100.00
26489;BME280;14169;43.684;10.484;2022-11-09T08:18:21;102137.47;;;19.12;100.00
26489;BME280;14169;43.684;10.484;2022-11-09T08:20:47;102137.56;;;19.29;100.00
26489;BME280;14169;43.684;10.484;2022-11-09T08:23:15;102131.69;;;19.41;100.00
26489;BME280;14169;43.684;10.484;2022-11-09T08:25:41;102132.69;;;19.57;100.00
26489;BME280;14169;43.684;10.484;2022-11-09T08:28:08;102139.13;;;19.70;100.00
26489;BME280;14169;43.684;10.484;2022-11-09T08:30:33;102130.84;;;19.78;100.00
26489;BME280;14169;43.684;10.484;2022-11-09T08:33:01;102127.66;;;19.88;100.00
26489;BME280;14169;43.684;10.484;2022-11-09T08:35:27;102134.81;;;20.05;100.00
26489;BME280;14169;43.684;10.484;2022-11-09T08:37:54;102122.22;;;20.10;100.00
26489;BME280;14169;43.684;10.484;2022-11-09T08:40:22;102128.44;;;20.09;100.00
26489;BME280;14169;43.684;10.484;2022-11-09T08:42:48;102121.66;;;20.03;100.00
26489;BME280;14169;43.684;10.484;2022-11-09T08:45:13;102118.63;;;20.11;100.00
26489;BME280;14169;43.684;10.484;2022-11-09T08:47:39;102120.13;;;20.16;100.00
26489;BME280;14169;43.684;10.484;2022-11-09T08:50:06;102122.06;;;20.30;100.00
26489;BME280;14169;43.684;10.484;2022-11-09T08:52:32;102118.44;;;20.50;100.00
26489;BME280;14169;43.684;10.484;2022-11-09T08:54:58;102113.59;;;20.58;100.00
26489;BME280;14169;43.684;10.484;2022-11-09T08:57:23;102107.28;;;20.60;100.00
26489;BME280;14169;43.684;10.484;2022-11-09T08:59:49;102102.28;;;20.54;100.00
26489;BME280;14169;43.684;10.484;2022-11-09T09:02:15;102098.56;;;20.75;100.00
26489;BME280;14169;43.684;10.484;2022-11-09T09:04:40;102102.28;;;20.88;100.00
26489;BME280;14169;43.684;10.484;2022-11-09T09:07:06;102101.81;;;20.97;100.00
26489;BME280;14169;43.684;10.484;2022-11-09T09:09:32;102103.16;;;21.04;100.00
26489;BME280;14169;43.684;10.484;2022-11-09T09:11:58;102103.09;;;21.06;100.00
26489;BME280;14169;43.684;10.484;2022-11-09T09:14:24;102092.44;;;21.23;100.00
26489;BME280;14169;43.684;10.484;2022-11-09T09:16:50;102087.66;;;21.30;100.00
26489;BME280;14169;43.684;10.484;2022-11-09T09:19:15;102085.81;;;21.47;100.00
26489;BME280;14169;43.684;10.484;2022-11-09T09:21:41;102079.91;;;21.73;100.00
26489;BME280;14169;43.684;10.484;2022-11-09T09:24:07;102081.50;;;21.76;100.00
26489;BME280;14169;43.684;10.484;2022-11-09T09:26:32;102076.81;;;21.81;100.00
26489;BME280;14169;43.684;10.484;2022-11-09T09:28:58;102071.41;;;21.82;100.00
26489;BME280;14169;43.684;10.484;2022-11-09T09:31:23;102070.53;;;21.98;100.00
26489;BME280;14169;43.684;10.484;2022-11-09T09:33:48;102071.06;;;22.18;100.00
26489;BME280;14169;43.684;10.484;2022-11-09T09:36:19;102067.38;;;22.21;100.00
26489;BME280;14169;43.684;10.484;2022-11-09T09:38:45;102077.75;;;22.25;100.00
26489;BME280;14169;43.684;10.484;2022-11-09T09:44:11;102072.31;;;22.70;100.00
26489;BME280;14169;43.684;10.484;2022-11-09T09:46:44;102055.16;;;22.76;100.00
26489;BME280;14169;43.684;10.484;2022-11-09T09:49:16;102062.84;;;22.81;100.00
26489;BME280;14169;43.684;10.484;2022-11-09T09:51:54;102056.59;;;22.96;100.00
26489;BME280;14169;43.684;10.484;2022-11-09T09:54:28;102057.72;;;23.06;100.00
26489;BME280;14169;43.684;10.484;2022-11-09T09:57:00;102049.19;;;23.15;100.00
26489;BME280;14169;43.684;10.484;2022-11-09T10:01:58;102052.88;;;23.26;100.00
26489;BME280;14169;43.684;10.484;2022-11-09T10:04:33;102050.94;;;23.42;100.00
26489;BME280;14169;43.684;10.484;2022-11-09T10:07:14;102043.75;;;23.57;100.00
26489;BME280;14169;43.684;10.484;2022-11-09T10:18:01;102033.06;;;23.98;100.00
26489;BME280;14169;43.684;10.484;2022-11-09T10:23:07;102022.59;;;24.47;100.00
26489;BME280;14169;43.684;10.484;2022-11-09T10:25:41;102025.16;;;24.48;100.00
26489;BME280;14169;43.684;10.484;2022-11-09T10:28:19;102026.44;;;24.55;100.00
26489;BME280;14169;43.684;10.484;2022-11-09T10:30:48;102013.06;;;24.93;100.00
26489;BME280;14169;43.684;10.484;2022-11-09T10:33:17;102010.97;;;25.22;100.00
26489;BME280;14169;43.684;10.484;2022-11-09T10:36:05;102001.75;;;25.38;100.00
26489;BME280;14169;43.684;10.484;2022-11-09T10:38:41;102000.72;;;25.52;100.00
26489;BME280;14169;43.684;10.484;2022-11-09T10:41:29;101997.16;;;25.40;100.00
26489;BME280;14169;43.684;10.484;2022-11-09T10:43:55;102002.78;;;25.48;100.00
26489;BME280;14169;43.684;10.484;2022-11-09T10:46:21;101996.59;;;25.71;100.00
26489;BME280;14169;43.684;10.484;2022-11-09T10:48:47;101999.91;;;25.75;100.00
26489;BME280;14169;43.684;10.484;2022-11-09T10:51:42;101997.59;;;25.81;100.00
26489;BME280;14169;43.684;10.484;2022-11-09T10:57:11;101989.91;;;26.12;100.00
26489;BME280;14169;43.684;10.484;2022-11-09T11:02:01;101986.34;;;26.46;100.00
26489;BME280;14169;43.684;10.484;2022-11-09T11:04:26;101975.53;;;26.36;100.00
26489;BME280;14169;43.684;10.484;2022-11-09T11:06:52;101975.91;;;26.32;100.00
26489;BME280;14169;43.684;10.484;2022-11-09T11:09:20;101976.16;;;26.40;100.00
26489;BME280;14169;43.684;10.484;2022-11-09T11:11:46;101972.88;;;26.47;100.00
26489;BME280;14169;43.684;10.484;2022-11-09T11:16:42;101958.75;;;26.67;100.00
26489;BME280;14169;43.684;10.484;2022-11-09T11:19:37;101954.63;;;26.63;100.00
26489;BME280;14169;43.684;10.484;2022-11-09T11:24:57;101958.53;;;26.48;100.00
26489;BME280;14169;43.684;10.484;2022-11-09T11:27:47;101954.78;;;26.51;100.00
26489;BME280;14169;43.684;10.484;2022-11-09T11:30:18;101949.88;;;26.67;100.00
26489;BME280;14169;43.684;10.484;2022-11-09T11:32:44;101950.19;;;27.18;100.00
26489;BME280;14169;43.684;10.484;2022-11-09T11:35:41;101950.66;;;26.47;100.00
26489;BME280;14169;43.684;10.484;2022-11-09T11:48:48;101933.47;;;26.94;100.00
26489;BME280;14169;43.684;10.484;2022-11-09T11:51:42;101939.31;;;26.99;100.00
26489;BME280;14169;43.684;10.484;2022-11-09T12:00:18;101929.88;;;27.15;100.00
26489;BME280;14169;43.684;10.484;2022-11-09T12:05:55;101916.03;;;27.74;100.00
26489;BME280;14169;43.684;10.484;2022-11-09T12:08:57;101924.03;;;26.45;100.00
26489;BME280;14169;43.684;10.484;2022-11-09T12:14:08;101923.84;;;26.14;100.00
26489;BME280;14169;43.684;10.484;2022-11-09T12:16:47;101921.72;;;25.14;100.00
26489;BME280;14169;43.684;10.484;2022-11-09T12:19:27;101930.94;;;24.49;100.00
26489;BME280;14169;43.684;10.484;2022-11-09T12:25:01;101923.56;;;23.50;100.00
26489;BME280;14169;43.684;10.484;2022-11-09T12:33:14;101934.03;;;22.86;100.00
26489;BME280;14169;43.684;10.484;2022-11-09T12:35:58;101932.84;;;22.63;100.00
26489;BME280;14169;43.684;10.484;2022-11-09T12:38:29;101930.59;;;22.57;100.00
26489;BME280;14169;43.684;10.484;2022-11-09T12:41:00;101926.69;;;22.63;100.00
26489;BME280;14169;43.684;10.484;2022-11-09T12:43:44;101917.19;;;22.59;100.00
26489;BME280;14169;43.684;10.484;2022-11-09T12:46:11;101914.28;;;22.49;100.00
26489;BME280;14169;43.684;10.484;2022-11-09T12:48:39;101906.75;;;22.42;100.00
26489;BME280;14169;43.684;10.484;2022-11-09T12:51:06;101914.06;;;22.52;100.00
26489;BME280;14169;43.684;10.484;2022-11-09T12:53:34;101906.69;;;22.57;100.00
26489;BME280;14169;43.684;10.484;2022-11-09T12:56:08;101910.53;;;22.66;100.00
26489;BME280;14169;43.684;10.484;2022-11-09T12:58:37;101893.06;;;22.62;100.00
26489;BME280;14169;43.684;10.484;2022-11-09T13:01:05;101898.59;;;22.59;100.00
26489;BME280;14169;43.684;10.484;2022-11-09T13:03:33;101901.94;;;22.48;100.00
26489;BME280;14169;43.684;10.484;2022-11-09T13:06:22;101906.97;;;22.39;100.00
26489;BME280;14169;43.684;10.484;2022-11-09T13:11:26;101901.44;;;22.28;100.00
26489;BME280;14169;43.684;10.484;2022-11-09T13:17:01;101898.50;;;22.18;100.00
26489;BME280;14169;43.684;10.484;2022-11-09T13:24:49;101889.09;;;21.99;100.00
26489;BME280;14169;43.684;10.484;2022-11-09T13:30:39;101900.91;;;22.37;100.00
26489;BME280;14169;43.684;10.484;2022-11-09T13:38:22;101892.84;;;22.24;100.00
26489;BME280;14169;43.684;10.484;2022-11-09T13:40:58;101896.88;;;22.16;100.00
26489;BME280;14169;43.684;10.484;2022-11-09T13:43:30;101889.47;;;22.07;100.00
26489;BME280;14169;43.684;10.484;2022-11-09T13:45:57;101893.66;;;21.97;100.00
26489;BME280;14169;43.684;10.484;2022-11-09T13:58:44;101889.28;;;21.81;100.00
26489;BME280;14169;43.684;10.484;2022-11-09T14:01:24;101883.38;;;21.76;100.00
26489;BME280;14169;43.684;10.484;2022-11-09T14:03:50;101886.41;;;21.70;100.00
26489;BME280;14169;43.684;10.484;2022-11-09T14:06:17;101880.44;;;21.67;100.00